createdAt,value
2022-11-17T00:05:10.582Z,86.44
2022-11-17T00:11:33.628Z,86.44
2022-11-17T00:17:53.700Z,86.04
2022-11-17T00:24:16.577Z,85.57
2022-11-17T00:30:36.575Z,85.09
2022-11-17T00:36:59.700Z,84.91
2022-11-17T00:43:19.563Z,84.61
2022-11-17T00:49:42.606Z,84.3
2022-11-17T00:56:02.711Z,83.97
2022-11-17T01:02:25.589Z,83.68
2022-11-17T01:08:45.597Z,83.93
2022-11-17T01:15:08.642Z,84.74
2022-11-17T01:21:28.592Z,84.87
2022-11-17T01:27:51.569Z,84.92
2022-11-17T01:34:11.714Z,84.91
2022-11-17T01:40:34.581Z,84.67
2022-11-17T01:46:58.260Z,84.56
2022-11-17T01:53:17.709Z,84.67
2022-11-17T01:59:37.584Z,85.09
2022-11-17T02:06:00.585Z,85.39
2022-11-17T02:12:20.718Z,85.25
2022-11-17T02:18:43.568Z,85.48
2022-11-17T02:25:03.591Z,85.65
2022-11-17T02:31:26.683Z,85.81
2022-11-17T02:37:46.599Z,85.73
2022-11-17T02:44:09.560Z,85.07
2022-11-17T02:50:29.721Z,84.91
2022-11-17T02:56:52.581Z,84.17
2022-11-17T03:03:12.571Z,83.44
2022-11-17T03:09:35.706Z,82.88
2022-11-17T03:15:55.579Z,83.12
2022-11-17T03:22:18.583Z,83.27
2022-11-17T03:28:38.689Z,82.99
2022-11-17T03:35:01.611Z,83.35
2022-11-17T03:41:21.557Z,83.35
2022-11-17T03:47:44.703Z,83.03
2022-11-17T03:54:04.581Z,82.79
2022-11-17T04:00:27.578Z,82.9
2022-11-17T04:06:47.665Z,82.89
2022-11-17T04:13:10.608Z,82.86
2022-11-17T04:19:30.575Z,82.75
2022-11-17T04:42:53.656Z,82.71
2022-11-17T04:49:16.591Z,82.95
2022-11-17T04:55:36.625Z,83.37
2022-11-17T05:02:04.311Z,83.35
2022-11-17T05:08:19.581Z,83.2
2022-11-17T05:14:42.578Z,82.97
2022-11-17T05:21:02.582Z,83.09
2022-11-17T05:27:25.591Z,82.61
2022-11-17T05:33:45.582Z,82.43
2022-11-17T05:40:08.627Z,82.56
2022-11-17T05:46:28.560Z,82.32
2022-11-17T05:52:51.578Z,81.9
2022-11-17T05:59:11.712Z,81.83
2022-11-17T06:05:34.561Z,82.33
2022-11-17T06:11:54.641Z,83.45
2022-11-17T06:18:17.627Z,84.35
2022-11-17T06:24:37.578Z,84.75
2022-11-17T06:31:00.567Z,85.31
2022-11-17T06:37:20.601Z,85.6
2022-11-17T06:43:43.643Z,85.77
2022-11-17T06:50:03.565Z,86.88
2022-11-17T06:56:26.589Z,88.01
2022-11-17T07:02:46.583Z,88.12
2022-11-17T07:09:09.553Z,89.09
2022-11-17T07:15:29.720Z,88.17
2022-11-17T07:21:52.657Z,88.6
2022-11-17T07:28:12.559Z,88.8
2022-11-17T07:34:35.714Z,89.1
2022-11-17T07:40:55.932Z,89.12
2022-11-17T07:47:18.660Z,89.36
2022-11-17T07:53:38.859Z,89.77
2022-11-17T08:00:01.584Z,89.82
2022-11-17T08:06:21.617Z,89.27
2022-11-17T08:12:44.612Z,88.96
2022-11-17T08:19:04.611Z,88.34
2022-11-17T08:25:27.613Z,87.63
2022-11-17T08:31:47.860Z,87.46
2022-11-17T08:38:10.612Z,87.16
2022-11-17T08:44:30.578Z,87.02
2022-11-17T08:50:53.736Z,87.49
2022-11-17T08:57:13.665Z,87.96
2022-11-17T09:03:36.605Z,88.25
2022-11-17T09:09:56.620Z,87.72
2022-11-17T09:16:19.561Z,87.73
2022-11-17T09:22:39.618Z,86.12
2022-11-17T09:29:02.726Z,83.16
2022-11-17T09:35:22.602Z,82.88
2022-11-17T09:41:45.628Z,83.28
2022-11-17T09:57:17.699Z,83.22
2022-11-17T10:03:43.797Z,83.22
2022-11-17T10:10:00.603Z,81.53
2022-11-17T10:16:20.691Z,79.32
2022-11-17T10:22:43.595Z,76.15
2022-11-17T10:29:08.204Z,75.64
2022-11-17T10:35:26.631Z,74.86
2022-11-17T10:41:46.639Z,74.82
2022-11-17T10:48:09.565Z,75.09
2022-11-17T10:54:29.604Z,73.24
2022-11-17T11:00:52.648Z,72.77
2022-11-17T11:07:12.637Z,72.98
2022-11-17T11:13:35.609Z,70.9
2022-11-17T11:19:55.587Z,71.54
2022-11-17T11:26:18.576Z,72.17
2022-11-17T11:32:38.642Z,72.16
2022-11-17T11:39:01.569Z,72.43
2022-11-17T11:45:21.564Z,72.35
2022-11-17T11:51:44.681Z,73.48
2022-11-17T11:58:04.577Z,69.64
2022-11-17T12:04:27.666Z,67.43
2022-11-17T12:10:47.591Z,67.86
2022-11-17T12:17:10.609Z,67.34
2022-11-17T12:23:30.573Z,67.81
2022-11-17T12:29:53.615Z,67.29
2022-11-17T12:36:13.602Z,65.8
2022-11-17T12:42:36.559Z,64.74
2022-11-17T12:48:56.625Z,65.19
2022-11-17T12:55:19.591Z,63.83
2022-11-17T13:01:39.656Z,61.97
2022-11-17T13:08:02.596Z,61.29
2022-11-17T13:14:22.598Z,60.94
2022-11-17T13:20:45.590Z,60.57
2022-11-17T13:27:05.711Z,61.86
2022-11-17T13:33:28.721Z,62.1
2022-11-17T13:39:48.597Z,62.81
2022-11-17T13:46:11.614Z,62.64
2022-11-17T13:52:36.345Z,63.49
2022-11-17T13:58:54.580Z,62.37
2022-11-17T14:05:14.599Z,62.39
2022-11-17T14:11:37.590Z,62.6
2022-11-17T14:17:57.566Z,61.89
2022-11-17T14:24:20.613Z,62.38
2022-11-17T14:30:40.596Z,63.69
2022-11-17T14:37:05.730Z,65.43
2022-11-17T14:43:23.606Z,65.16
2022-11-17T14:49:46.659Z,65.97
2022-11-17T14:56:06.573Z,66.69
2022-11-17T15:12:35.101Z,67.2
2022-11-17T15:18:54.581Z,68.28
2022-11-17T15:25:17.573Z,68.1
2022-11-17T15:31:37.621Z,69.7
2022-11-17T15:38:00.602Z,69.72
2022-11-17T15:44:20.571Z,69.91
2022-11-17T15:50:43.670Z,71.13
2022-11-17T15:57:03.582Z,72.3
2022-11-17T16:03:26.784Z,72.03
2022-11-17T16:09:49.047Z,72.53
2022-11-17T16:16:09.565Z,72.96
2022-11-17T16:22:29.646Z,73.19
2022-11-17T16:28:52.657Z,74.27
2022-11-17T16:35:12.596Z,75.03
2022-11-17T16:41:35.655Z,75.41
2022-11-17T16:47:55.633Z,76.67
2022-11-17T16:54:18.602Z,77.65
2022-11-17T17:00:38.600Z,78.57
2022-11-17T17:07:01.650Z,79.32
2022-11-17T17:13:21.642Z,79.27
2022-11-17T17:19:44.589Z,79.09
2022-11-17T17:26:04.698Z,79.51
2022-11-17T17:32:27.623Z,80.11
2022-11-17T17:38:51.774Z,79.61
2022-11-17T17:45:10.617Z,80
2022-11-17T17:51:30.571Z,79.78
2022-11-17T17:57:53.555Z,79.32
2022-11-17T18:04:16.052Z,80.64
2022-11-17T18:10:36.553Z,80.78
2022-11-17T18:16:56.634Z,81.18
2022-11-17T18:23:19.599Z,82.35
2022-11-17T18:29:39.601Z,82.96
2022-11-17T18:36:02.618Z,83.35
2022-11-17T18:42:22.637Z,83.9
2022-11-17T18:48:45.650Z,83.92
2022-11-17T18:55:05.601Z,83.78
2022-11-17T19:01:28.735Z,83.35
2022-11-17T19:07:48.621Z,84.1
2022-11-17T19:14:11.579Z,83.88
2022-11-17T19:20:31.634Z,83.85
2022-11-17T19:26:54.597Z,84.29
2022-11-17T19:33:14.592Z,84.6
2022-11-17T19:39:37.667Z,84.99
2022-11-17T19:45:57.619Z,85.23
2022-11-17T19:52:20.613Z,85.4
2022-11-17T19:58:40.608Z,85.87
2022-11-17T20:14:14.643Z,86.9
2022-11-17T20:20:34.583Z,87.12
2022-11-17T20:26:57.575Z,87.34
2022-11-17T20:33:17.621Z,87.48
2022-11-17T20:39:40.574Z,87.24
2022-11-17T20:46:00.795Z,87.19
2022-11-17T20:52:23.887Z,87.24
2022-11-17T20:58:43.827Z,87.35
2022-11-17T21:05:06.576Z,87.54
2022-11-17T21:11:26.617Z,87.85
2022-11-17T21:17:49.633Z,88.09
2022-11-17T21:24:09.593Z,88.11
2022-11-17T21:30:32.616Z,88.15
2022-11-17T21:36:52.605Z,88.2
2022-11-17T21:43:15.593Z,88.2
2022-11-17T21:49:35.667Z,88.24
2022-11-17T21:55:58.605Z,88.27
2022-11-17T22:02:18.584Z,88.64
2022-11-17T22:08:41.640Z,88.44
2022-11-17T22:15:01.590Z,88.38
2022-11-17T22:21:24.608Z,88.53
2022-11-17T22:27:44.592Z,88.46
2022-11-17T22:34:07.580Z,87.97
2022-11-17T22:40:27.604Z,88.06
2022-11-17T22:46:50.604Z,88.29
2022-11-17T22:53:10.564Z,88.2
2022-11-17T22:59:33.566Z,88.24
2022-11-17T23:22:30.584Z,89.39
2022-11-17T23:28:50.554Z,89.62
2022-11-17T23:35:13.572Z,89.38
2022-11-17T23:41:33.590Z,89.27
2022-11-17T23:47:56.601Z,89.35
2022-11-17T23:54:16.590Z,89.29
